Ann Arbor Township, Michigan
Current Conditions -  °F | °C
As of 3:53 PM on Tuesday 27 Jan 2015 (Local Time) from KARB Reporting Station
Clear Clear  
Wind Chill: 20°   Ceiling: Unl
Heat Index: 28°   Visibility: 10mi
Dew Point: 12°   Wind: 8mph
Humidity: 51%   Direction: 340°NNW
Pressure: 30.13"   Gusts: NA
Location:  42.3281°N, 83.7037°W
Report Text: KARB 272053Z 34007KT 10SM CLR M02/M11 A3013 RMK AO2 SLP217 T10221111 53007
Loading
Personal Weather Stations






























Interactive Weather Map New forecast layout! Learn more

10-Day Weather Forecast

Advertisements
Track Severe Weather on mobile